EWG6PR LOWW-EDDS
Flight info
| Callsign | EWG6PR |
|---|---|
| Flight time | 0h 53m |
| Altitude | 24000 |
| Route | LUGEM DCT KIRDI DCT EBEDA L173 DODIL T127 TEKSI |
| Aircraft | A320/M-SDE3FGHIRWY/LB1 |
Departure
| Time | 2026-04-26 18:54 |
|---|---|
| Airport | Vienna International Airport (LOWW) |
Arrival
| Time | 2026-04-26 19:48 |
|---|---|
| Airport | Stuttgart Airport (EDDS) |
| Time | Latitude | Longitude | Altitude | Speed | Heading |
|---|---|---|---|---|---|
| 2026-04-26 18:22 | 48.11903 | 16.55700 | 611 ft | 0 kts | 24° |
| 2026-04-26 18:46 | 48.11881 | 16.55685 | 621 ft | 4 kts | 30° |
| 2026-04-26 18:46 | 48.11859 | 16.55662 | 620 ft | 4 kts | 44° |
| 2026-04-26 18:47 | 48.11844 | 16.55632 | 625 ft | 4 kts | 78° |
| 2026-04-26 18:47 | 48.11844 | 16.55608 | 625 ft | 1 kts | 116° |
| 2026-04-26 18:47 | 48.11845 | 16.55604 | 625 ft | 0 kts | 116° |
| 2026-04-26 18:50 | 48.11833 | 16.55643 | 625 ft | 13 kts | 116° |
| 2026-04-26 18:50 | 48.11782 | 16.55786 | 617 ft | 13 kts | 132° |
| 2026-04-26 18:50 | 48.11712 | 16.55781 | 614 ft | 10 kts | 176° |
| 2026-04-26 18:51 | 48.11662 | 16.55888 | 613 ft | 15 kts | 114° |
| 2026-04-26 18:51 | 48.11611 | 16.56042 | 623 ft | 22 kts | 115° |
| 2026-04-26 18:51 | 48.11526 | 16.56304 | 625 ft | 30 kts | 116° |
| 2026-04-26 18:51 | 48.11432 | 16.56589 | 613 ft | 31 kts | 117° |
| 2026-04-26 18:52 | 48.11337 | 16.56886 | 625 ft | 32 kts | 116° |
| 2026-04-26 18:52 | 48.11243 | 16.57171 | 612 ft | 19 kts | 115° |
| 2026-04-26 18:52 | 48.11167 | 16.57235 | 615 ft | 13 kts | 212° |
| 2026-04-26 18:52 | 48.11077 | 16.57160 | 623 ft | 20 kts | 206° |
| 2026-04-26 18:53 | 48.11064 | 16.57076 | 616 ft | 0 kts | 297° |
| 2026-04-26 18:53 | 48.11066 | 16.57069 | 609 ft | 5 kts | 297° |
| 2026-04-26 18:53 | 48.11182 | 16.56714 | 613 ft | 77 kts | 296° |
| 2026-04-26 18:53 | 48.11516 | 16.55693 | 617 ft | 139 kts | 295° |
| 2026-04-26 18:54 | 48.11961 | 16.54196 | 876 ft | 165 kts | 295° |
| 2026-04-26 18:54 | 48.12119 | 16.52489 | 1606 ft | 170 kts | 268° |
| 2026-04-26 18:54 | 48.11972 | 16.50670 | 2158 ft | 187 kts | 265° |
| 2026-04-26 18:54 | 48.11756 | 16.48627 | 2525 ft | 210 kts | 264° |
| 2026-04-26 18:55 | 48.11462 | 16.46345 | 2945 ft | 237 kts | 259° |
| 2026-04-26 18:55 | 48.11040 | 16.43828 | 3490 ft | 260 kts | 258° |
| 2026-04-26 18:55 | 48.10562 | 16.41178 | 4418 ft | 265 kts | 258° |
| 2026-04-26 18:55 | 48.10075 | 16.38511 | 5470 ft | 266 kts | 257° |
| 2026-04-26 18:56 | 48.09824 | 16.35811 | 6616 ft | 259 kts | 272° |
| 2026-04-26 18:56 | 48.09848 | 16.33134 | 7685 ft | 258 kts | 273° |
| 2026-04-26 18:56 | 48.09891 | 16.30372 | 8340 ft | 273 kts | 274° |
| 2026-04-26 18:56 | 48.09944 | 16.27452 | 8991 ft | 287 kts | 274° |
| 2026-04-26 18:57 | 48.10002 | 16.24399 | 9653 ft | 300 kts | 274° |
| 2026-04-26 18:57 | 48.10042 | 16.22297 | 10096 ft | 308 kts | 274° |
| 2026-04-26 18:57 | 48.10308 | 16.17973 | 11029 ft | 318 kts | 279° |
| 2026-04-26 18:57 | 48.10611 | 16.14657 | 11716 ft | 325 kts | 279° |
| 2026-04-26 18:58 | 48.10922 | 16.11278 | 12472 ft | 330 kts | 280° |
| 2026-04-26 18:58 | 48.11236 | 16.07845 | 13235 ft | 335 kts | 280° |
| 2026-04-26 18:58 | 48.11550 | 16.04373 | 13987 ft | 339 kts | 279° |
| 2026-04-26 18:58 | 48.11868 | 16.00850 | 14660 ft | 344 kts | 280° |
| 2026-04-26 18:59 | 48.12189 | 15.97277 | 15340 ft | 348 kts | 279° |
| 2026-04-26 18:59 | 48.12492 | 15.93662 | 16003 ft | 352 kts | 278° |
| 2026-04-26 18:59 | 48.12703 | 15.89996 | 16677 ft | 356 kts | 276° |
| 2026-04-26 18:59 | 48.12850 | 15.86270 | 17331 ft | 360 kts | 275° |
| 2026-04-26 19:00 | 48.12969 | 15.82519 | 17990 ft | 363 kts | 274° |
| 2026-04-26 19:00 | 48.13084 | 15.78716 | 18630 ft | 367 kts | 274° |
| 2026-04-26 19:00 | 48.13203 | 15.74880 | 19187 ft | 370 kts | 274° |
| 2026-04-26 19:00 | 48.13330 | 15.71019 | 19742 ft | 373 kts | 274° |
| 2026-04-26 19:01 | 48.13468 | 15.67127 | 20306 ft | 376 kts | 274° |
| 2026-04-26 19:01 | 48.13610 | 15.63209 | 20871 ft | 379 kts | 274° |
| 2026-04-26 19:01 | 48.13752 | 15.59304 | 21416 ft | 381 kts | 274° |
| 2026-04-26 19:01 | 48.13900 | 15.55281 | 21961 ft | 384 kts | 274° |
| 2026-04-26 19:02 | 48.14049 | 15.51273 | 22475 ft | 387 kts | 274° |
| 2026-04-26 19:02 | 48.14197 | 15.47229 | 22982 ft | 390 kts | 273° |
| 2026-04-26 19:02 | 48.14344 | 15.43157 | 23494 ft | 393 kts | 273° |
| 2026-04-26 19:02 | 48.14392 | 15.41826 | 23659 ft | 394 kts | 273° |
| 2026-04-26 19:03 | 48.14632 | 15.34996 | 24041 ft | 396 kts | 273° |
| 2026-04-26 19:03 | 48.14778 | 15.30874 | 24194 ft | 396 kts | 273° |
| 2026-04-26 19:03 | 48.14926 | 15.26725 | 24237 ft | 401 kts | 273° |
| 2026-04-26 19:03 | 48.15075 | 15.22546 | 24239 ft | 403 kts | 273° |
| 2026-04-26 19:04 | 48.15222 | 15.18355 | 24234 ft | 403 kts | 273° |
| 2026-04-26 19:04 | 48.15364 | 15.14168 | 24233 ft | 403 kts | 273° |
| 2026-04-26 19:04 | 48.15501 | 15.09969 | 24230 ft | 403 kts | 272° |
| 2026-04-26 19:04 | 48.15638 | 15.05774 | 24233 ft | 403 kts | 272° |
| 2026-04-26 19:05 | 48.15901 | 14.97377 | 24227 ft | 407 kts | 272° |
| 2026-04-26 19:05 | 48.16032 | 14.93065 | 24228 ft | 421 kts | 272° |
| 2026-04-26 19:05 | 48.16166 | 14.88626 | 24226 ft | 433 kts | 272° |
| 2026-04-26 19:06 | 48.16303 | 14.84073 | 24220 ft | 443 kts | 272° |
| 2026-04-26 19:06 | 48.16444 | 14.79406 | 24219 ft | 452 kts | 272° |
| 2026-04-26 19:06 | 48.16587 | 14.74682 | 24220 ft | 455 kts | 272° |
| 2026-04-26 19:06 | 48.16730 | 14.69946 | 24219 ft | 456 kts | 272° |
| 2026-04-26 19:07 | 48.16873 | 14.65206 | 24223 ft | 455 kts | 272° |
| 2026-04-26 19:07 | 48.16966 | 14.62067 | 24220 ft | 455 kts | 272° |
| 2026-04-26 19:07 | 48.17102 | 14.57330 | 24220 ft | 455 kts | 272° |
| 2026-04-26 19:07 | 48.17236 | 14.52603 | 24220 ft | 455 kts | 272° |
| 2026-04-26 19:08 | 48.17368 | 14.47862 | 24219 ft | 455 kts | 272° |
| 2026-04-26 19:08 | 48.17496 | 14.43132 | 24219 ft | 455 kts | 272° |
| 2026-04-26 19:08 | 48.17620 | 14.38403 | 24215 ft | 455 kts | 272° |
| 2026-04-26 19:08 | 48.17744 | 14.33667 | 24209 ft | 454 kts | 271° |
| 2026-04-26 19:09 | 48.17867 | 14.28936 | 24212 ft | 454 kts | 272° |
| 2026-04-26 19:09 | 48.17991 | 14.24210 | 24215 ft | 454 kts | 272° |
| 2026-04-26 19:09 | 48.18114 | 14.19493 | 24215 ft | 454 kts | 272° |
| 2026-04-26 19:09 | 48.18235 | 14.14764 | 24213 ft | 454 kts | 271° |
| 2026-04-26 19:10 | 48.18352 | 14.10046 | 24211 ft | 454 kts | 271° |
| 2026-04-26 19:10 | 48.18466 | 14.05312 | 24203 ft | 454 kts | 271° |
| 2026-04-26 19:10 | 48.18576 | 14.00585 | 24203 ft | 454 kts | 271° |
| 2026-04-26 19:10 | 48.18682 | 13.95859 | 24204 ft | 454 kts | 271° |
| 2026-04-26 19:11 | 48.18788 | 13.91136 | 24204 ft | 454 kts | 271° |
| 2026-04-26 19:11 | 48.18896 | 13.86397 | 24204 ft | 454 kts | 271° |
| 2026-04-26 19:11 | 48.19003 | 13.81673 | 24205 ft | 454 kts | 271° |
| 2026-04-26 19:11 | 48.19109 | 13.76943 | 24201 ft | 454 kts | 272° |
| 2026-04-26 19:12 | 48.19212 | 13.72214 | 24203 ft | 454 kts | 272° |
| 2026-04-26 19:12 | 48.19313 | 13.67480 | 24202 ft | 455 kts | 271° |
| 2026-04-26 19:12 | 48.19407 | 13.62743 | 24203 ft | 455 kts | 271° |
| 2026-04-26 19:12 | 48.19498 | 13.58005 | 24200 ft | 455 kts | 271° |
| 2026-04-26 19:13 | 48.19590 | 13.53267 | 24202 ft | 455 kts | 271° |
| 2026-04-26 19:13 | 48.19850 | 13.48550 | 24201 ft | 455 kts | 277° |
| 2026-04-26 19:13 | 48.20263 | 13.43844 | 24204 ft | 455 kts | 277° |
| 2026-04-26 19:13 | 48.20699 | 13.39154 | 24204 ft | 455 kts | 277° |
| 2026-04-26 19:14 | 48.21141 | 13.34515 | 24200 ft | 455 kts | 278° |
| 2026-04-26 19:14 | 48.21597 | 13.29759 | 24200 ft | 455 kts | 278° |
| 2026-04-26 19:14 | 48.22038 | 13.25125 | 24199 ft | 455 kts | 278° |
| 2026-04-26 19:14 | 48.22336 | 13.21951 | 24199 ft | 455 kts | 278° |
| 2026-04-26 19:15 | 48.22916 | 13.15661 | 24200 ft | 455 kts | 277° |
| 2026-04-26 19:15 | 48.23339 | 13.10959 | 24203 ft | 456 kts | 277° |
| 2026-04-26 19:15 | 48.23752 | 13.06302 | 24204 ft | 456 kts | 277° |
| 2026-04-26 19:15 | 48.24169 | 13.01589 | 24205 ft | 456 kts | 277° |
| 2026-04-26 19:16 | 48.24590 | 12.96883 | 24206 ft | 456 kts | 277° |
| 2026-04-26 19:16 | 48.25013 | 12.92167 | 24219 ft | 456 kts | 277° |
| 2026-04-26 19:16 | 48.25432 | 12.87461 | 24223 ft | 455 kts | 277° |
| 2026-04-26 19:16 | 48.25845 | 12.82748 | 24224 ft | 455 kts | 277° |
| 2026-04-26 19:17 | 48.26256 | 12.78039 | 24219 ft | 455 kts | 277° |
| 2026-04-26 19:17 | 48.26664 | 12.73336 | 24218 ft | 454 kts | 277° |
| 2026-04-26 19:17 | 48.27043 | 12.68950 | 24216 ft | 454 kts | 277° |
| 2026-04-26 19:17 | 48.27446 | 12.64244 | 24215 ft | 454 kts | 277° |
| 2026-04-26 19:18 | 48.27847 | 12.59547 | 24216 ft | 454 kts | 277° |
| 2026-04-26 19:18 | 48.28248 | 12.54853 | 24214 ft | 454 kts | 277° |
| 2026-04-26 19:18 | 48.28651 | 12.50148 | 24213 ft | 454 kts | 277° |
| 2026-04-26 19:18 | 48.29053 | 12.45459 | 24210 ft | 454 kts | 277° |
| 2026-04-26 19:19 | 48.29456 | 12.40760 | 24212 ft | 454 kts | 277° |
| 2026-04-26 19:19 | 48.29855 | 12.36058 | 24210 ft | 454 kts | 277° |
| 2026-04-26 19:19 | 48.30246 | 12.31365 | 24210 ft | 454 kts | 277° |
| 2026-04-26 19:19 | 48.30634 | 12.26663 | 24210 ft | 454 kts | 277° |
| 2026-04-26 19:20 | 48.31021 | 12.21946 | 24213 ft | 454 kts | 277° |
| 2026-04-26 19:20 | 48.31275 | 12.18841 | 24212 ft | 454 kts | 277° |
| 2026-04-26 19:20 | 48.31788 | 12.12545 | 24221 ft | 454 kts | 277° |
| 2026-04-26 19:20 | 48.32169 | 12.07841 | 24228 ft | 454 kts | 276° |
| 2026-04-26 19:21 | 48.32550 | 12.03135 | 24227 ft | 453 kts | 276° |
| 2026-04-26 19:21 | 48.32929 | 11.98431 | 24231 ft | 453 kts | 276° |
| 2026-04-26 19:21 | 48.33307 | 11.93733 | 24232 ft | 453 kts | 276° |
| 2026-04-26 19:21 | 48.33683 | 11.89033 | 24233 ft | 453 kts | 276° |
| 2026-04-26 19:22 | 48.34054 | 11.84330 | 24233 ft | 453 kts | 276° |
| 2026-04-26 19:22 | 48.34421 | 11.79631 | 24231 ft | 453 kts | 276° |
| 2026-04-26 19:22 | 48.34789 | 11.74934 | 24231 ft | 452 kts | 276° |
| 2026-04-26 19:22 | 48.35157 | 11.70241 | 24231 ft | 452 kts | 276° |
| 2026-04-26 19:23 | 48.35524 | 11.65546 | 24228 ft | 452 kts | 276° |
| 2026-04-26 19:23 | 48.35892 | 11.60846 | 24225 ft | 452 kts | 276° |
| 2026-04-26 19:23 | 48.36255 | 11.56157 | 24220 ft | 453 kts | 276° |
| 2026-04-26 19:23 | 48.36615 | 11.51449 | 24218 ft | 453 kts | 276° |
| 2026-04-26 19:24 | 48.36972 | 11.46752 | 24213 ft | 453 kts | 276° |
| 2026-04-26 19:24 | 48.37327 | 11.42032 | 23852 ft | 451 kts | 276° |
| 2026-04-26 19:24 | 48.37998 | 11.32977 | 22872 ft | 425 kts | 276° |
| 2026-04-26 19:25 | 48.38317 | 11.28583 | 22383 ft | 420 kts | 276° |
| 2026-04-26 19:25 | 48.38527 | 11.25696 | 22069 ft | 418 kts | 276° |
| 2026-04-26 19:25 | 48.38952 | 11.19891 | 21437 ft | 416 kts | 276° |
| 2026-04-26 19:25 | 48.39265 | 11.15627 | 20981 ft | 414 kts | 276° |
| 2026-04-26 19:26 | 48.39580 | 11.11338 | 20521 ft | 412 kts | 276° |
| 2026-04-26 19:26 | 48.39893 | 11.07058 | 20237 ft | 411 kts | 276° |
| 2026-04-26 19:26 | 48.40202 | 11.02793 | 20209 ft | 411 kts | 276° |
| 2026-04-26 19:26 | 48.40509 | 10.98510 | 20222 ft | 412 kts | 276° |
| 2026-04-26 19:27 | 48.40815 | 10.94229 | 19830 ft | 410 kts | 276° |
| 2026-04-26 19:27 | 48.41119 | 10.89976 | 19397 ft | 408 kts | 276° |
| 2026-04-26 19:27 | 48.41420 | 10.85736 | 18977 ft | 406 kts | 276° |
| 2026-04-26 19:27 | 48.41715 | 10.81523 | 18547 ft | 404 kts | 276° |
| 2026-04-26 19:28 | 48.42004 | 10.77317 | 18069 ft | 402 kts | 276° |
| 2026-04-26 19:28 | 48.42288 | 10.73148 | 17594 ft | 400 kts | 276° |
| 2026-04-26 19:28 | 48.42571 | 10.68998 | 17127 ft | 397 kts | 276° |
| 2026-04-26 19:28 | 48.42850 | 10.64894 | 16696 ft | 390 kts | 276° |
| 2026-04-26 19:29 | 48.43123 | 10.60878 | 16298 ft | 381 kts | 276° |
| 2026-04-26 19:29 | 48.43391 | 10.56951 | 15898 ft | 373 kts | 276° |
| 2026-04-26 19:29 | 48.43654 | 10.53107 | 15502 ft | 366 kts | 276° |
| 2026-04-26 19:29 | 48.43912 | 10.49329 | 15118 ft | 359 kts | 276° |
| 2026-04-26 19:30 | 48.44162 | 10.45620 | 14773 ft | 352 kts | 276° |
| 2026-04-26 19:30 | 48.44405 | 10.41996 | 14488 ft | 344 kts | 276° |
| 2026-04-26 19:30 | 48.44640 | 10.38456 | 14201 ft | 336 kts | 276° |
| 2026-04-26 19:30 | 48.44792 | 10.36147 | 14008 ft | 334 kts | 276° |
| 2026-04-26 19:31 | 48.45099 | 10.31507 | 13582 ft | 331 kts | 276° |
| 2026-04-26 19:31 | 48.45324 | 10.28067 | 13262 ft | 330 kts | 276° |
| 2026-04-26 19:31 | 48.45544 | 10.24636 | 12946 ft | 328 kts | 276° |
| 2026-04-26 19:31 | 48.45762 | 10.21225 | 12622 ft | 327 kts | 276° |
| 2026-04-26 19:32 | 48.45980 | 10.17831 | 12341 ft | 325 kts | 276° |
| 2026-04-26 19:32 | 48.46196 | 10.14460 | 12086 ft | 319 kts | 276° |
| 2026-04-26 19:32 | 48.46408 | 10.11179 | 11834 ft | 313 kts | 276° |
| 2026-04-26 19:32 | 48.46617 | 10.07932 | 11585 ft | 310 kts | 276° |
| 2026-04-26 19:33 | 48.46822 | 10.04699 | 11331 ft | 309 kts | 276° |
| 2026-04-26 19:33 | 48.47027 | 10.01482 | 11087 ft | 308 kts | 276° |
| 2026-04-26 19:33 | 48.47230 | 9.98277 | 10842 ft | 307 kts | 276° |
| 2026-04-26 19:33 | 48.47430 | 9.95092 | 10596 ft | 301 kts | 276° |
| 2026-04-26 19:34 | 48.47618 | 9.92035 | 10357 ft | 294 kts | 276° |
| 2026-04-26 19:34 | 48.47805 | 9.88967 | 10115 ft | 287 kts | 276° |
| 2026-04-26 19:34 | 48.47985 | 9.86007 | 9851 ft | 281 kts | 276° |
| 2026-04-26 19:34 | 48.48160 | 9.83127 | 9588 ft | 279 kts | 276° |
| 2026-04-26 19:35 | 48.48336 | 9.80219 | 9335 ft | 278 kts | 276° |
| 2026-04-26 19:35 | 48.48513 | 9.77317 | 9210 ft | 277 kts | 276° |
| 2026-04-26 19:35 | 48.48686 | 9.74429 | 9220 ft | 278 kts | 276° |
| 2026-04-26 19:35 | 48.48862 | 9.71528 | 9222 ft | 278 kts | 276° |
| 2026-04-26 19:36 | 48.49041 | 9.68621 | 9007 ft | 278 kts | 276° |
| 2026-04-26 19:36 | 48.49161 | 9.66663 | 8832 ft | 277 kts | 276° |
| 2026-04-26 19:36 | 48.49390 | 9.62840 | 8494 ft | 276 kts | 276° |
| 2026-04-26 19:36 | 48.49559 | 9.59968 | 8237 ft | 275 kts | 276° |
| 2026-04-26 19:37 | 48.49727 | 9.57101 | 7989 ft | 274 kts | 276° |
| 2026-04-26 19:37 | 48.49893 | 9.54239 | 7781 ft | 274 kts | 275° |
| 2026-04-26 19:37 | 48.50058 | 9.51379 | 7574 ft | 274 kts | 276° |
| 2026-04-26 19:37 | 48.50224 | 9.48519 | 7381 ft | 274 kts | 275° |
| 2026-04-26 19:38 | 48.50390 | 9.45662 | 7247 ft | 273 kts | 275° |
| 2026-04-26 19:38 | 48.50554 | 9.42817 | 7219 ft | 273 kts | 275° |
| 2026-04-26 19:38 | 48.50720 | 9.39957 | 7089 ft | 274 kts | 275° |
| 2026-04-26 19:38 | 48.50886 | 9.37108 | 6846 ft | 272 kts | 275° |
| 2026-04-26 19:39 | 48.51050 | 9.34267 | 6606 ft | 272 kts | 275° |
| 2026-04-26 19:39 | 48.51212 | 9.31436 | 6348 ft | 271 kts | 275° |
| 2026-04-26 19:39 | 48.51369 | 9.28609 | 6090 ft | 270 kts | 275° |
| 2026-04-26 19:39 | 48.51525 | 9.25824 | 5838 ft | 270 kts | 275° |
| 2026-04-26 19:40 | 48.51683 | 9.23006 | 5587 ft | 270 kts | 275° |
| 2026-04-26 19:40 | 48.51990 | 9.20216 | 5333 ft | 270 kts | 283° |
| 2026-04-26 19:40 | 48.52425 | 9.17460 | 5081 ft | 270 kts | 284° |
| 2026-04-26 19:40 | 48.52873 | 9.14717 | 4831 ft | 270 kts | 284° |
| 2026-04-26 19:41 | 48.53321 | 9.11964 | 4615 ft | 270 kts | 284° |
| 2026-04-26 19:41 | 48.53760 | 9.09212 | 4397 ft | 271 kts | 284° |
| 2026-04-26 19:41 | 48.54188 | 9.06439 | 4202 ft | 271 kts | 284° |
| 2026-04-26 19:41 | 48.54468 | 9.04615 | 4092 ft | 271 kts | 284° |
| 2026-04-26 19:42 | 48.55050 | 9.00914 | 4012 ft | 270 kts | 288° |
| 2026-04-26 19:42 | 48.55968 | 8.98565 | 4016 ft | 252 kts | 318° |
| 2026-04-26 19:42 | 48.57392 | 8.97269 | 4012 ft | 235 kts | 341° |
| 2026-04-26 19:42 | 48.58930 | 8.96437 | 4017 ft | 234 kts | 343° |
| 2026-04-26 19:43 | 48.60467 | 8.95668 | 4017 ft | 232 kts | 344° |
| 2026-04-26 19:43 | 48.62040 | 8.95388 | 4013 ft | 224 kts | 12° |
| 2026-04-26 19:43 | 48.63383 | 8.96348 | 4012 ft | 209 kts | 41° |
| 2026-04-26 19:43 | 48.64271 | 8.97975 | 4011 ft | 195 kts | 63° |
| 2026-04-26 19:44 | 48.64714 | 8.99840 | 3963 ft | 184 kts | 73° |
| 2026-04-26 19:44 | 48.65062 | 9.01654 | 3805 ft | 176 kts | 73° |
| 2026-04-26 19:44 | 48.65400 | 9.03411 | 3577 ft | 172 kts | 74° |
| 2026-04-26 19:44 | 48.65732 | 9.05142 | 3351 ft | 170 kts | 73° |
| 2026-04-26 19:45 | 48.66061 | 9.06858 | 3125 ft | 169 kts | 73° |
| 2026-04-26 19:45 | 48.66386 | 9.08560 | 2897 ft | 168 kts | 73° |
| 2026-04-26 19:45 | 48.66701 | 9.10207 | 2702 ft | 153 kts | 72° |
| 2026-04-26 19:45 | 48.66981 | 9.11693 | 2466 ft | 143 kts | 73° |
| 2026-04-26 19:46 | 48.67245 | 9.13103 | 2282 ft | 137 kts | 72° |
| 2026-04-26 19:46 | 48.67505 | 9.14478 | 2145 ft | 137 kts | 73° |
| 2026-04-26 19:46 | 48.67765 | 9.15888 | 1971 ft | 140 kts | 71° |
| 2026-04-26 19:46 | 48.68044 | 9.17296 | 1745 ft | 138 kts | 71° |
| 2026-04-26 19:47 | 48.68312 | 9.18671 | 1557 ft | 135 kts | 72° |
| 2026-04-26 19:47 | 48.68395 | 9.19109 | 1478 ft | 134 kts | 72° |
| 2026-04-26 19:47 | 48.68824 | 9.21309 | 1263 ft | 117 kts | 75° |
| 2026-04-26 19:47 | 48.69000 | 9.22261 | 1237 ft | 69 kts | 74° |
| 2026-04-26 19:48 | 48.69104 | 9.22790 | 1221 ft | 45 kts | 68° |
| 2026-04-26 19:48 | 48.69268 | 9.23107 | 1217 ft | 26 kts | 40° |
| 2026-04-26 19:48 | 48.69365 | 9.23157 | 1220 ft | 14 kts | 342° |
| 2026-04-26 19:48 | 48.69386 | 9.23082 | 1223 ft | 2 kts | 318° |
| 2026-04-26 19:49 | 48.69408 | 9.23026 | 1225 ft | 13 kts | 273° |
| 2026-04-26 19:49 | 48.69383 | 9.22899 | 1228 ft | 11 kts | 253° |
| 2026-04-26 19:49 | 48.69354 | 9.22749 | 1231 ft | 23 kts | 254° |
| 2026-04-26 19:49 | 48.69308 | 9.22508 | 1245 ft | 24 kts | 254° |
| 2026-04-26 19:50 | 48.69264 | 9.22274 | 1255 ft | 24 kts | 253° |
| 2026-04-26 19:50 | 48.69218 | 9.22033 | 1252 ft | 26 kts | 253° |
| 2026-04-26 19:50 | 48.69161 | 9.21729 | 1260 ft | 31 kts | 255° |
| 2026-04-26 19:50 | 48.69102 | 9.21421 | 1263 ft | 30 kts | 253° |
| 2026-04-26 19:51 | 48.69046 | 9.21123 | 1275 ft | 29 kts | 254° |
| 2026-04-26 19:51 | 48.68991 | 9.20835 | 1275 ft | 28 kts | 254° |
| 2026-04-26 19:51 | 48.68938 | 9.20554 | 1282 ft | 27 kts | 254° |
| 2026-04-26 19:51 | 48.68886 | 9.20282 | 1289 ft | 26 kts | 254° |
| 2026-04-26 19:52 | 48.68840 | 9.20043 | 1294 ft | 13 kts | 255° |
| 2026-04-26 19:52 | 48.68813 | 9.19937 | 1296 ft | 9 kts | 269° |
| 2026-04-26 19:52 | 48.68840 | 9.19891 | 1299 ft | 7 kts | 332° |
| 2026-04-26 19:52 | 48.68894 | 9.19846 | 1304 ft | 7 kts | 283° |
| 2026-04-26 19:53 | 48.68882 | 9.19781 | 1305 ft | 9 kts | 252° |
| 2026-04-26 19:53 | 48.68864 | 9.19723 | 1307 ft | 5 kts | 202° |
| 2026-04-26 19:53 | 48.68812 | 9.19743 | 1303 ft | 10 kts | 163° |
| 2026-04-26 19:53 | 48.68804 | 9.19747 | 1302 ft | 0 kts | 163° |